createdAt,value
2019-03-03T00:01:35.852Z,58.54
2019-03-03T00:04:07.249Z,58.43
2019-03-03T00:06:38.559Z,58.05
2019-03-03T00:09:09.853Z,57.98
2019-03-03T00:11:42.036Z,57.60
2019-03-03T00:14:13.131Z,58.70
2019-03-03T00:16:44.311Z,58.37
2019-03-03T00:19:15.567Z,58.56
2019-03-03T00:21:47.831Z,58.53
2019-03-03T00:24:18.935Z,57.53
2019-03-03T00:26:50.243Z,58.76
2019-03-03T00:29:21.577Z,59.26
2019-03-03T00:31:52.935Z,59.27
2019-03-03T00:34:24.224Z,58.46
2019-03-03T00:37:00.253Z,57.92
2019-03-03T00:39:45.299Z,58.81
2019-03-03T00:42:33.950Z,58.20
2019-03-03T00:45:19.053Z,58.50
2019-03-03T00:47:51.953Z,58.79
2019-03-03T00:50:27.790Z,59.07
2019-03-03T00:53:06.533Z,59.32
2019-03-03T00:55:48.609Z,58.64
2019-03-03T00:58:27.469Z,58.77
2019-03-03T01:01:00.405Z,57.99
2019-03-03T01:03:32.564Z,59.57
2019-03-03T01:06:11.446Z,59.02
2019-03-03T01:08:45.263Z,59.18
2019-03-03T01:11:20.616Z,58.98
2019-03-03T01:14:09.805Z,59.56
2019-03-03T01:16:59.282Z,59.94
2019-03-03T01:19:41.558Z,59.07
2019-03-03T01:22:14.573Z,59.87
2019-03-03T01:24:55.954Z,60.07
2019-03-03T01:27:27.111Z,60.78
2019-03-03T01:29:58.301Z,60.75
2019-03-03T01:32:29.631Z,60.53
2019-03-03T01:35:00.855Z,60.25
2019-03-03T01:37:32.075Z,60.30
2019-03-03T01:40:03.378Z,59.65
2019-03-03T01:42:34.661Z,59.95
2019-03-03T01:45:09.069Z,60.19
2019-03-03T01:47:40.435Z,60.00
2019-03-03T01:50:14.906Z,60.64
2019-03-03T01:52:46.179Z,60.52
2019-03-03T01:55:17.400Z,59.78
2019-03-03T01:57:48.824Z,60.85
2019-03-03T02:00:22.770Z,60.95
2019-03-03T02:02:54.042Z,61.03
2019-03-03T02:05:25.431Z,61.24
2019-03-03T02:07:56.736Z,60.33
2019-03-03T02:10:28.073Z,60.65
2019-03-03T02:12:59.367Z,60.90
2019-03-03T02:15:30.691Z,61.01
2019-03-03T02:18:02.002Z,61.63
2019-03-03T02:20:33.294Z,62.19
2019-03-03T02:23:05.043Z,62.24
2019-03-03T02:25:36.358Z,62.32
2019-03-03T02:28:07.575Z,62.26
2019-03-03T02:30:38.864Z,62.33
2019-03-03T02:33:10.079Z,62.31
2019-03-03T02:35:41.365Z,62.38
2019-03-03T02:38:12.706Z,62.22
2019-03-03T02:40:44.039Z,62.48
2019-03-03T02:43:15.145Z,62.62
2019-03-03T02:45:47.572Z,62.65
2019-03-03T02:48:18.928Z,62.75
2019-03-03T02:50:50.245Z,62.15
2019-03-03T02:53:21.515Z,62.01
2019-03-03T02:55:52.842Z,61.22
2019-03-03T02:58:25.183Z,60.76
2019-03-03T03:00:58.123Z,60.75
2019-03-03T03:03:29.799Z,60.95
2019-03-03T03:06:18.796Z,60.44
2019-03-03T03:08:52.104Z,60.78
2019-03-03T03:11:24.962Z,61.03
2019-03-03T03:13:57.196Z,61.60
2019-03-03T03:16:29.953Z,61.86
2019-03-03T03:19:14.850Z,61.75
2019-03-03T03:21:47.803Z,61.26
2019-03-03T03:24:26.974Z,61.99
2019-03-03T03:26:59.930Z,62.07
2019-03-03T03:29:32.074Z,62.44
2019-03-03T03:32:13.899Z,62.10
2019-03-03T03:34:55.787Z,62.15
2019-03-03T03:37:31.306Z,62.79
2019-03-03T03:40:10.097Z,62.42
2019-03-03T03:42:48.765Z,63.13
2019-03-03T03:45:21.693Z,62.92
2019-03-03T03:47:54.706Z,62.97
2019-03-03T03:50:36.689Z,63.48
2019-03-03T03:53:10.044Z,63.55
2019-03-03T03:55:48.033Z,63.55
2019-03-03T03:58:23.555Z,64.87
2019-03-03T04:00:56.477Z,64.84
2019-03-03T04:03:44.311Z,65.01
2019-03-03T04:06:17.195Z,65.24
2019-03-03T04:08:53.046Z,65.57
2019-03-03T04:11:25.962Z,65.69
2019-03-03T04:14:10.583Z,66.00
2019-03-03T04:16:43.221Z,66.57
2019-03-03T04:19:25.163Z,66.31
2019-03-03T04:21:58.166Z,66.71
2019-03-03T04:24:31.285Z,66.27
2019-03-03T04:27:04.240Z,66.23
2019-03-03T04:29:43.167Z,66.39
2019-03-03T04:32:18.751Z,66.62
2019-03-03T04:34:51.967Z,66.98
2019-03-03T04:37:30.898Z,66.90
2019-03-03T04:40:04.187Z,67.10
2019-03-03T04:42:40.147Z,67.46
2019-03-03T04:45:19.681Z,67.64
2019-03-03T04:47:55.969Z,67.49
2019-03-03T04:50:31.854Z,66.67
2019-03-03T04:53:14.928Z,66.45
2019-03-03T04:55:54.155Z,67.07
2019-03-03T04:58:45.758Z,66.54
2019-03-03T05:01:35.118Z,67.13
2019-03-03T05:04:08.111Z,67.36
2019-03-03T05:06:47.281Z,67.55
2019-03-03T05:09:20.298Z,66.20
2019-03-03T05:12:16.646Z,66.28
2019-03-03T05:14:48.121Z,65.76
2019-03-03T05:17:21.133Z,66.13
2019-03-03T05:19:54.083Z,65.89
2019-03-03T05:22:25.584Z,64.22
2019-03-03T05:24:57.074Z,64.30
2019-03-03T05:27:28.594Z,63.99
2019-03-03T05:29:59.888Z,64.74
2019-03-03T05:32:31.295Z,64.17
2019-03-03T05:35:02.650Z,62.75
2019-03-03T05:37:34.163Z,59.42
2019-03-03T05:40:07.353Z,57.90
2019-03-03T05:42:38.778Z,57.27
2019-03-03T05:45:10.181Z,56.88
2019-03-03T05:47:41.435Z,56.29
2019-03-03T05:50:12.869Z,56.17
2019-03-03T05:52:44.235Z,55.34
2019-03-03T05:55:15.656Z,54.90
2019-03-03T05:57:47.026Z,53.28
2019-03-03T06:00:18.662Z,52.01
2019-03-03T06:02:51.084Z,54.37
2019-03-03T06:05:22.456Z,54.42
2019-03-03T06:07:54.156Z,54.50
2019-03-03T06:10:25.540Z,55.38
2019-03-03T06:12:57.041Z,55.38
2019-03-03T06:15:28.614Z,54.56
2019-03-03T06:17:59.978Z,54.71
2019-03-03T06:20:31.410Z,53.39
2019-03-03T06:23:02.782Z,53.59
2019-03-03T06:25:34.168Z,52.42
2019-03-03T06:28:05.629Z,49.73
2019-03-03T06:30:37.874Z,49.52
2019-03-03T06:33:09.350Z,50.54
2019-03-03T06:35:41.012Z,43.99
2019-03-03T06:38:12.389Z,43.72
2019-03-03T06:40:43.814Z,43.21
2019-03-03T06:43:15.207Z,44.27
2019-03-03T06:45:46.626Z,43.45
2019-03-03T06:48:18.127Z,43.11
2019-03-03T06:50:49.502Z,40.95
2019-03-03T06:53:20.939Z,40.11
2019-03-03T06:55:52.439Z,41.36
2019-03-03T06:58:23.728Z,38.70
2019-03-03T07:00:55.000Z,37.94
2019-03-03T07:03:26.369Z,38.02
2019-03-03T07:05:57.739Z,40.18
2019-03-03T07:08:29.154Z,40.67
2019-03-03T07:11:00.548Z,42.34
2019-03-03T07:13:32.089Z,41.41
2019-03-03T07:16:03.470Z,42.21
2019-03-03T07:18:34.841Z,42.90
2019-03-03T07:21:06.289Z,40.52
2019-03-03T07:23:38.045Z,41.75
2019-03-03T07:26:09.676Z,40.08
2019-03-03T07:28:41.094Z,39.14
2019-03-03T07:31:14.575Z,36.54
2019-03-03T07:33:46.489Z,33.49
2019-03-03T07:36:17.845Z,34.64
2019-03-03T07:38:49.252Z,33.95
2019-03-03T07:41:20.631Z,33.21
2019-03-03T07:43:53.943Z,32.18
2019-03-03T07:46:25.776Z,33.45
2019-03-03T07:48:57.181Z,32.10
2019-03-03T07:51:28.529Z,27.65
2019-03-03T07:53:59.920Z,27.81
2019-03-03T07:56:33.650Z,28.10
2019-03-03T07:59:04.910Z,26.66
2019-03-03T08:01:36.215Z,25.32
2019-03-03T08:04:07.600Z,25.82
2019-03-03T08:06:38.959Z,26.57
2019-03-03T08:09:10.463Z,24.61
2019-03-03T08:11:41.819Z,26.21
2019-03-03T08:14:14.307Z,24.01
2019-03-03T08:16:45.660Z,26.53
2019-03-03T08:19:17.288Z,28.39
2019-03-03T08:21:48.945Z,28.57
2019-03-03T08:24:22.387Z,27.15
2019-03-03T08:26:53.708Z,26.62
2019-03-03T08:29:27.142Z,25.42
2019-03-03T08:31:58.468Z,24.49
2019-03-03T08:34:31.969Z,26.78
2019-03-03T08:37:03.424Z,26.33
2019-03-03T08:39:35.014Z,26.43
2019-03-03T08:42:24.105Z,27.02
2019-03-03T08:45:14.072Z,27.60
2019-03-03T08:47:53.114Z,26.37
2019-03-03T08:50:24.173Z,28.02
2019-03-03T08:52:59.514Z,27.10
2019-03-03T08:55:41.199Z,27.72
2019-03-03T08:58:28.265Z,27.80
2019-03-03T09:01:04.431Z,28.12
2019-03-03T09:03:39.677Z,28.70
2019-03-03T09:06:12.464Z,27.62
2019-03-03T09:08:45.391Z,27.82
2019-03-03T09:11:28.798Z,28.11
2019-03-03T09:14:01.758Z,27.06
2019-03-03T09:16:34.557Z,26.97
2019-03-03T09:19:22.196Z,26.52
2019-03-03T09:21:54.912Z,26.83
2019-03-03T09:24:29.956Z,27.07
2019-03-03T09:27:12.037Z,28.00
2019-03-03T09:29:55.884Z,27.20
2019-03-03T09:32:31.875Z,27.22
2019-03-03T09:35:04.941Z,25.35
2019-03-03T09:37:45.745Z,24.99
2019-03-03T09:40:34.980Z,25.74
2019-03-03T09:43:22.951Z,24.55
2019-03-03T09:46:13.711Z,24.08
2019-03-03T09:48:55.804Z,23.84
2019-03-03T09:51:34.570Z,23.67
2019-03-03T09:54:10.376Z,23.25
2019-03-03T09:57:00.741Z,23.70
2019-03-03T09:59:36.583Z,24.09
2019-03-03T10:02:12.238Z,24.02
2019-03-03T10:04:47.437Z,25.15
2019-03-03T10:07:26.360Z,24.18
2019-03-03T10:09:59.242Z,23.68
2019-03-03T10:12:34.219Z,25.53
2019-03-03T10:15:09.296Z,26.33
2019-03-03T10:17:51.157Z,26.05
2019-03-03T10:20:40.368Z,26.20
2019-03-03T10:23:15.885Z,26.89
2019-03-03T10:25:51.382Z,25.59
2019-03-03T10:28:41.482Z,26.18
2019-03-03T10:31:19.152Z,26.29
2019-03-03T10:33:54.702Z,26.70
2019-03-03T10:36:31.266Z,25.75
2019-03-03T10:39:13.399Z,24.98
2019-03-03T10:41:55.467Z,26.25
2019-03-03T10:44:28.347Z,24.96
2019-03-03T10:47:06.526Z,26.37
2019-03-03T10:49:39.256Z,26.41
2019-03-03T10:52:31.605Z,26.21
2019-03-03T10:55:04.434Z,25.78
2019-03-03T10:57:55.942Z,26.07
2019-03-03T11:00:47.096Z,27.09
2019-03-03T11:03:19.972Z,27.43
2019-03-03T11:05:52.851Z,27.48
2019-03-03T11:08:40.942Z,27.37
2019-03-03T11:11:13.793Z,26.93
2019-03-03T11:13:49.723Z,27.58
2019-03-03T11:16:39.869Z,27.78
2019-03-03T11:19:13.699Z,27.27
2019-03-03T11:21:58.314Z,26.89
2019-03-03T11:24:49.391Z,28.07
2019-03-03T11:27:22.325Z,27.00
2019-03-03T11:29:56.336Z,27.85
2019-03-03T11:32:31.926Z,28.30
2019-03-03T11:35:21.023Z,28.18
2019-03-03T11:37:58.435Z,28.38
2019-03-03T11:40:47.361Z,28.32
2019-03-03T11:43:20.268Z,27.83
2019-03-03T11:45:53.087Z,27.31
2019-03-03T11:48:25.887Z,26.25
2019-03-03T11:51:13.851Z,27.76
2019-03-03T11:53:56.986Z,28.51
2019-03-03T11:56:41.901Z,28.81
2019-03-03T11:59:14.755Z,28.65
2019-03-03T12:01:50.809Z,28.14
2019-03-03T12:04:32.033Z,28.79
2019-03-03T12:07:21.263Z,28.79
2019-03-03T12:10:12.371Z,28.80
2019-03-03T12:12:51.187Z,27.60
2019-03-03T12:15:39.328Z,28.81
2019-03-03T12:18:27.382Z,29.06
2019-03-03T12:21:16.252Z,29.08
2019-03-03T12:23:51.752Z,29.95
2019-03-03T12:26:41.022Z,30.05
2019-03-03T12:29:14.005Z,30.07
2019-03-03T12:31:55.931Z,30.95
2019-03-03T12:34:31.756Z,29.97
2019-03-03T12:37:21.819Z,30.58
2019-03-03T12:39:57.483Z,29.76
2019-03-03T12:42:30.405Z,29.76
2019-03-03T12:45:08.763Z,29.73
2019-03-03T12:47:53.534Z,30.62
2019-03-03T12:50:41.498Z,30.35
2019-03-03T12:53:26.213Z,31.06
2019-03-03T12:56:01.181Z,30.62
2019-03-03T12:58:34.086Z,31.41
2019-03-03T13:01:15.107Z,31.94
2019-03-03T13:04:04.339Z,31.14
2019-03-03T13:06:46.241Z,30.70
2019-03-03T13:09:19.453Z,30.55
2019-03-03T13:11:54.517Z,30.83
2019-03-03T13:14:30.827Z,31.60
2019-03-03T13:17:03.711Z,30.42
2019-03-03T13:19:54.239Z,31.01
2019-03-03T13:22:34.558Z,30.77
2019-03-03T13:25:15.249Z,30.84
2019-03-03T13:27:57.099Z,30.57
2019-03-03T13:30:45.387Z,30.53
2019-03-03T13:33:32.402Z,30.95
2019-03-03T13:36:07.807Z,31.47
2019-03-03T13:38:56.848Z,31.18
2019-03-03T13:41:32.331Z,32.00
2019-03-03T13:44:03.726Z,31.69
2019-03-03T13:46:35.064Z,32.38
2019-03-03T13:49:06.384Z,32.20
2019-03-03T13:51:37.696Z,31.82
2019-03-03T13:54:08.957Z,32.08
2019-03-03T13:56:42.321Z,31.92
2019-03-03T13:59:13.664Z,32.20
2019-03-03T14:01:45.262Z,31.83
2019-03-03T14:04:16.613Z,32.19
2019-03-03T14:06:47.922Z,32.40
2019-03-03T14:09:19.204Z,33.17
2019-03-03T14:11:50.516Z,32.74
2019-03-03T14:14:21.850Z,32.82
2019-03-03T14:16:53.158Z,32.53
2019-03-03T14:19:24.510Z,32.64
2019-03-03T14:21:55.799Z,32.90
2019-03-03T14:24:27.061Z,33.21
2019-03-03T14:26:58.281Z,33.07
2019-03-03T14:29:29.629Z,33.01
2019-03-03T14:32:00.927Z,33.43
2019-03-03T14:34:32.994Z,33.79
2019-03-03T14:37:04.502Z,33.87
2019-03-03T14:39:37.097Z,33.73
2019-03-03T14:42:07.927Z,33.74
2019-03-03T14:44:39.064Z,34.06
2019-03-03T14:47:10.319Z,34.73
2019-03-03T14:49:41.627Z,34.88
2019-03-03T14:52:12.819Z,34.43
2019-03-03T14:54:44.070Z,34.79
2019-03-03T14:57:15.313Z,34.72
2019-03-03T14:59:46.712Z,35.09
2019-03-03T15:02:17.945Z,35.32
2019-03-03T15:04:49.331Z,35.38
2019-03-03T15:07:20.595Z,35.46
2019-03-03T15:09:51.885Z,35.71
2019-03-03T15:12:23.120Z,35.97
2019-03-03T15:14:54.442Z,36.10
2019-03-03T15:17:25.727Z,36.32
2019-03-03T15:19:57.002Z,36.22
2019-03-03T15:22:28.274Z,36.25
2019-03-03T15:24:59.673Z,36.62
2019-03-03T15:27:31.872Z,37.19
2019-03-03T15:30:03.173Z,36.63
2019-03-03T15:32:34.605Z,36.99
2019-03-03T15:35:07.017Z,37.17
2019-03-03T15:37:38.404Z,37.25
2019-03-03T15:40:12.356Z,37.44
2019-03-03T15:42:44.626Z,37.69
2019-03-03T15:45:18.174Z,38.01
2019-03-03T15:47:49.443Z,38.12
2019-03-03T15:50:22.046Z,38.27
2019-03-03T15:52:53.350Z,38.16
2019-03-03T15:55:26.435Z,38.54
2019-03-03T15:57:57.801Z,38.65
2019-03-03T16:00:34.659Z,38.45
2019-03-03T16:03:06.102Z,38.38
2019-03-03T16:05:37.390Z,38.21
2019-03-03T16:08:08.876Z,38.71
2019-03-03T16:10:40.096Z,39.17
2019-03-03T16:13:11.599Z,38.97
2019-03-03T16:15:42.996Z,38.85
2019-03-03T16:18:14.361Z,38.87
2019-03-03T16:20:45.819Z,39.16
2019-03-03T16:23:17.333Z,39.42
2019-03-03T16:25:48.774Z,38.59
2019-03-03T16:28:20.201Z,38.68
2019-03-03T16:30:51.610Z,39.19
2019-03-03T16:33:23.092Z,39.42
2019-03-03T16:35:54.463Z,39.82
2019-03-03T16:38:26.997Z,39.50
2019-03-03T16:40:58.493Z,39.38
2019-03-03T16:43:30.040Z,39.88
2019-03-03T16:46:01.429Z,39.85
2019-03-03T16:48:32.950Z,39.97
2019-03-03T16:51:04.499Z,39.94
2019-03-03T16:53:35.764Z,40.02
2019-03-03T16:56:07.117Z,40.12
2019-03-03T16:58:38.467Z,39.96
2019-03-03T17:01:10.050Z,39.56
2019-03-03T17:03:41.366Z,40.12
2019-03-03T17:06:12.589Z,40.37
2019-03-03T17:08:44.028Z,39.10
2019-03-03T17:11:18.823Z,39.93
2019-03-03T17:13:50.242Z,39.97
2019-03-03T17:16:21.641Z,39.97
2019-03-03T17:18:53.166Z,40.42
2019-03-03T17:21:24.611Z,40.39
2019-03-03T17:23:55.975Z,41.33
2019-03-03T17:26:27.355Z,39.92
2019-03-03T17:28:58.862Z,39.84
2019-03-03T17:31:30.314Z,39.83
2019-03-03T17:34:01.709Z,39.76
2019-03-03T17:36:33.069Z,40.01
2019-03-03T17:39:05.916Z,40.67
2019-03-03T17:41:37.971Z,40.67
2019-03-03T17:44:09.283Z,41.16
2019-03-03T17:46:40.573Z,40.32
2019-03-03T17:49:12.082Z,40.80
2019-03-03T17:51:43.439Z,40.80
2019-03-03T17:54:14.795Z,40.55
2019-03-03T17:56:46.191Z,40.52
2019-03-03T17:59:18.145Z,41.65
2019-03-03T18:01:49.577Z,41.48
2019-03-03T18:04:20.949Z,41.27
2019-03-03T18:06:52.459Z,41.95
2019-03-03T18:09:24.360Z,42.43
2019-03-03T18:11:58.839Z,42.13
2019-03-03T18:14:31.368Z,42.41
2019-03-03T18:17:02.851Z,42.58
2019-03-03T18:19:34.371Z,42.66
2019-03-03T18:22:05.851Z,43.18
2019-03-03T18:24:37.914Z,43.18
2019-03-03T18:27:09.366Z,43.59
2019-03-03T18:29:40.746Z,43.28
2019-03-03T18:32:12.251Z,43.52
2019-03-03T18:34:43.745Z,43.49
2019-03-03T18:37:15.094Z,44.05
2019-03-03T18:39:46.458Z,43.61
2019-03-03T18:42:17.905Z,44.00
2019-03-03T18:44:49.726Z,43.85
2019-03-03T18:47:21.096Z,43.61
2019-03-03T18:49:52.414Z,43.88
2019-03-03T18:52:23.695Z,43.58
2019-03-03T18:54:55.043Z,43.58
2019-03-03T18:57:26.406Z,43.68
2019-03-03T18:59:57.770Z,44.13
2019-03-03T19:02:29.006Z,43.71
2019-03-03T19:05:00.355Z,43.76
2019-03-03T19:07:31.711Z,43.57
2019-03-03T19:10:03.113Z,43.56
2019-03-03T19:12:35.071Z,44.15
2019-03-03T19:15:12.422Z,44.42
2019-03-03T19:17:43.831Z,44.42
2019-03-03T19:20:17.650Z,44.78
2019-03-03T19:22:51.043Z,44.78
2019-03-03T19:25:22.547Z,44.95
2019-03-03T19:27:53.953Z,45.03
2019-03-03T19:30:26.688Z,44.70
2019-03-03T19:33:13.576Z,44.66
2019-03-03T19:35:45.090Z,45.66
2019-03-03T19:38:16.489Z,45.03
2019-03-03T19:40:48.160Z,44.88
2019-03-03T19:43:19.660Z,45.80
2019-03-03T19:45:54.157Z,45.93
2019-03-03T19:48:25.469Z,45.89
2019-03-03T19:50:56.937Z,46.45
2019-03-03T19:53:28.351Z,46.30
2019-03-03T19:55:59.811Z,46.27
2019-03-03T19:58:31.242Z,46.26
2019-03-03T20:01:03.282Z,46.01
2019-03-03T20:03:34.675Z,46.82
2019-03-03T20:06:06.089Z,46.53
2019-03-03T20:08:37.447Z,47.03
2019-03-03T20:11:08.775Z,47.11
2019-03-03T20:13:40.038Z,47.30
2019-03-03T20:16:11.418Z,47.43
2019-03-03T20:18:42.890Z,47.50
2019-03-03T20:21:14.364Z,47.90
2019-03-03T20:23:45.797Z,47.90
2019-03-03T20:26:17.200Z,48.78
2019-03-03T20:28:50.624Z,48.83
2019-03-03T20:31:22.125Z,48.89
2019-03-03T20:33:53.613Z,49.82
2019-03-03T20:36:24.875Z,49.31
2019-03-03T20:38:56.236Z,49.83
2019-03-03T20:41:27.624Z,49.85
2019-03-03T20:43:59.365Z,50.91
2019-03-03T20:46:30.699Z,51.25
2019-03-03T20:49:02.016Z,51.59
2019-03-03T20:51:33.416Z,51.68
2019-03-03T20:54:04.699Z,51.82
2019-03-03T20:56:36.513Z,52.04
2019-03-03T20:59:07.806Z,52.88
2019-03-03T21:01:39.058Z,53.19
2019-03-03T21:04:10.291Z,53.65
2019-03-03T21:06:41.596Z,54.14
2019-03-03T21:09:12.934Z,53.80
2019-03-03T21:11:44.482Z,54.13
2019-03-03T21:14:15.773Z,55.05
2019-03-03T21:16:47.034Z,55.51
2019-03-03T21:19:18.281Z,55.64
2019-03-03T21:21:49.547Z,55.88
2019-03-03T21:24:20.820Z,56.22
2019-03-03T21:26:53.862Z,57.20
2019-03-03T21:29:25.086Z,57.02
2019-03-03T21:31:56.687Z,57.22
2019-03-03T21:34:27.932Z,56.63
2019-03-03T21:37:00.805Z,56.75
2019-03-03T21:39:31.365Z,57.33
2019-03-03T21:42:02.730Z,58.02
2019-03-03T21:44:34.053Z,57.88
2019-03-03T21:47:05.366Z,58.20
2019-03-03T21:49:37.278Z,58.58
2019-03-03T21:52:08.792Z,58.80
2019-03-03T21:54:39.909Z,59.36
2019-03-03T21:57:11.323Z,58.67
2019-03-03T21:59:42.611Z,58.92
2019-03-03T22:02:13.964Z,58.98
2019-03-03T22:04:45.226Z,58.83
2019-03-03T22:07:16.505Z,59.36
2019-03-03T22:09:47.796Z,59.23
2019-03-03T22:12:19.062Z,59.36
2019-03-03T22:14:50.481Z,60.22
2019-03-03T22:17:21.769Z,59.86
2019-03-03T22:19:53.114Z,59.48
2019-03-03T22:22:24.441Z,59.73
2019-03-03T22:24:55.715Z,59.47
2019-03-03T22:27:26.930Z,59.91
2019-03-03T22:29:58.003Z,60.75
2019-03-03T22:32:29.320Z,60.50
2019-03-03T22:35:00.594Z,61.15
2019-03-03T22:37:31.913Z,60.69
2019-03-03T22:40:03.240Z,60.93
2019-03-03T22:42:34.517Z,60.84
2019-03-03T22:45:11.795Z,60.95
2019-03-03T22:47:43.045Z,61.08
2019-03-03T22:50:15.774Z,61.01
2019-03-03T22:52:47.078Z,61.31
2019-03-03T22:55:19.898Z,61.36
2019-03-03T22:57:51.198Z,61.24
2019-03-03T23:00:48.296Z,61.02
2019-03-03T23:03:26.402Z,61.44
2019-03-03T23:06:18.603Z,61.36
2019-03-03T23:09:10.628Z,61.36
2019-03-03T23:11:48.091Z,61.86
2019-03-03T23:14:23.580Z,62.22
2019-03-03T23:17:06.804Z,62.07
2019-03-03T23:19:41.233Z,61.67
2019-03-03T23:22:27.674Z,62.06
2019-03-03T23:25:07.730Z,62.62
2019-03-03T23:27:39.219Z,62.24
2019-03-03T23:30:10.504Z,62.99
2019-03-03T23:32:41.851Z,63.27
2019-03-03T23:35:13.175Z,63.09
2019-03-03T23:37:44.634Z,62.78
2019-03-03T23:40:15.986Z,63.24
2019-03-03T23:42:47.340Z,63.19
2019-03-03T23:45:18.770Z,63.01
2019-03-03T23:47:50.088Z,63.41
2019-03-03T23:50:21.369Z,63.76
2019-03-03T23:52:52.654Z,64.08
2019-03-03T23:55:24.003Z,63.99
2019-03-03T23:57:55.438Z,64.11
